Glencoe, Missouri
Current Conditions -  °F | °C
As of 12:54 PM on Wednesday 26 Nov 2014 (Local Time) from KSUS Reporting Station
Moderate Snow Moderate Snow  
Wind Chill:   Ceiling: 800
Heat Index:   Visibility: 0.5mi
Dew Point: -1°   Wind: 0mph
Humidity: 92%   Direction: NA
Pressure: 29.97"   Gusts: NA
Location:  38.54°N, 90.62°W
Report Text: KSUS 261854Z 00000KT 1/2SM R08R/2400V4500FT SN FG OVC008 01/M01 A2997 RMK AO2 SLP157 P0006 T00061006
Loading
Personal Weather Stations






























Interactive Weather Map New forecast layout! Learn more

10-Day Weather Forecast

Advertisements
Track Severe Weather on mobile